Time;durP1;ratioP1;P1;durP2;ratioP2;P2;SDS_P1;SDS_P2;PMS_P1;PMS_P2;Temp;Humidity;BMP_temperature;BMP_pressure;BME280_temperature;BME280_humidity;BME280_pressure;Samples;Min_cycle;Max_cycle;Signal;HPM_P1;HPM_P2
2023/05/19 00:10:22;;;;;;;3.53;2.30;;;;;;;18.27;65.56;96449.97;5036438;28;20029;-29
2023/05/19 00:12:48;;;;;;;4.10;2.38;;;;;;;18.38;65.01;96452.13;5035970;28;20048;-29
2023/05/19 00:25:34;;;;;;;4.65;2.63;;;;;;;18.48;64.60;96459.00;5035684;28;20151;-29
2023/05/19 00:41:25;;;;;;;4.55;2.40;;;;;;;18.24;65.08;96437.19;5028948;28;20503;-31
2023/05/19 00:43:51;;;;;;;5.25;2.70;;;;;;;18.34;65.23;96445.31;5035909;28;20060;-30
2023/05/19 00:56:23;;;;;;;3.15;2.30;;;;;;;18.53;64.25;96425.38;5043269;28;20055;-29
2023/05/19 01:12:15;;;;;;;2.78;2.28;;;;;;;18.27;65.10;96433.50;5035304;28;20527;-29
2023/05/19 01:41:42;;;;;;;2.22;1.45;;;;;;;18.34;64.51;96413.13;5035801;28;20037;-29
2023/05/19 01:58:05;;;;;;;2.95;1.50;;;;;;;18.28;64.89;96393.84;5014819;28;20128;-29
2023/05/19 02:27:23;;;;;;;3.40;1.50;;;;;;;18.28;64.63;96391.09;5014061;28;20036;-29
2023/05/19 02:43:16;;;;;;;3.50;2.15;;;;;;;18.31;64.38;96392.09;5022788;28;20045;-29
2023/05/19 02:59:08;;;;;;;2.42;1.73;;;;;;;18.14;64.64;96389.13;5033088;28;20123;-29
2023/05/19 03:12:23;;;;;;;2.47;1.90;;;;;;;18.45;63.58;96390.53;5033335;28;20087;-30
2023/05/19 03:28:16;;;;;;;2.55;1.77;;;;;;;18.21;64.21;96385.97;5039639;28;20462;-29
2023/05/19 03:44:09;;;;;;;5.22;2.10;;;;;;;18.25;63.78;96394.78;5039815;28;20087;-30
2023/05/19 04:00:04;;;;;;;5.55;2.10;;;;;;;18.15;64.05;96396.13;5038885;28;20036;-28
2023/05/19 04:13:06;;;;;;;2.42;1.67;;;;;;;18.07;64.05;96395.00;5040337;28;20550;-30
2023/05/19 04:29:00;;;;;;;12.70;4.22;;;;;;;18.09;63.61;96392.53;5040979;28;20079;-30
2023/05/19 04:44:52;;;;;;;10.43;2.58;;;;;;;17.92;63.65;96406.03;5028232;28;20516;-29
2023/05/19 05:00:45;;;;;;;3.47;2.10;;;;;;;18.14;63.25;96413.84;5035553;28;20060;-30
2023/05/19 05:13:47;;;;;;;3.08;1.70;;;;;;;18.09;63.02;96419.22;5035037;28;20060;-29
2023/05/19 05:29:40;;;;;;;1.60;1.40;;;;;;;17.94;64.27;96400.81;5034662;28;20056;-29
2023/05/19 05:45:32;;;;;;;2.25;1.90;;;;;;;18.07;63.57;96388.75;5027324;28;20052;-29
2023/05/19 06:01:24;;;;;;;4.93;2.00;;;;;;;18.07;63.13;96389.50;5041636;28;20485;-29
2023/05/19 06:14:26;;;;;;;3.03;1.40;;;;;;;18.16;62.94;96394.91;5034160;28;20036;-30
2023/05/19 06:30:19;;;;;;;3.55;1.48;;;;;;;18.12;63.17;96408.06;5033674;28;20044;-29
2023/05/19 06:46:11;;;;;;;3.72;1.75;;;;;;;18.11;62.89;96412.03;5042002;28;20060;-30
2023/05/19 07:02:04;;;;;;;2.85;1.48;;;;;;;17.98;63.23;96411.59;5033601;28;20056;-30
2023/05/19 07:15:12;;;;;;;2.70;1.30;;;;;;;17.94;63.45;96413.75;5033706;28;20079;-29
2023/05/19 07:31:03;;;;;;;2.92;1.40;;;;;;;18.00;63.43;96422.09;5033014;28;20096;-29
2023/05/19 07:46:56;;;;;;;2.92;1.23;;;;;;;18.06;63.86;96420.94;5025595;28;20052;-29
2023/05/19 08:02:48;;;;;;;1.83;1.30;;;;;;;18.11;64.20;96412.03;5033165;28;20512;-29
2023/05/19 08:15:58;;;;;;;3.28;1.30;;;;;;;17.99;64.90;96409.59;5035888;28;20452;-29
2023/05/19 08:31:52;;;;;;;2.10;1.20;;;;;;;18.23;64.14;96424.69;5035999;28;20160;-29
2023/05/19 08:34:18;;;;;;;0.98;0.80;;;;;;;18.20;64.30;96433.88;5036040;28;20018;-29
2023/05/19 08:46:51;;;;;;;1.50;1.13;;;;;;;18.13;64.17;96437.03;5029248;28;20053;-29
2023/05/19 09:02:47;;;;;;;1.27;1.10;;;;;;;18.31;63.87;96439.53;5035508;28;20409;-29
2023/05/19 09:18:39;;;;;;;1.48;1.10;;;;;;;18.24;64.00;96436.44;5035807;28;20040;-29
2023/05/19 09:32:04;;;;;;;2.35;1.15;;;;;;;18.24;64.01;96442.69;5035117;28;20129;-29
2023/05/19 09:48:03;;;;;;;8.15;1.20;;;;;;;18.43;63.98;96439.69;5025293;28;20128;-29
2023/05/19 10:03:55;;;;;;;1.48;1.00;;;;;;;18.35;63.91;96441.31;5013482;28;20033;-29
2023/05/19 10:17:15;;;;;;;1.55;1.10;;;;;;;18.37;64.14;96433.38;4994943;28;20390;-29
2023/05/19 10:33:11;;;;;;;2.17;1.52;;;;;;;18.25;65.81;96443.44;4994379;28;20049;-29
2023/05/19 10:49:06;;;;;;;1.75;1.10;;;;;;;18.23;66.25;96437.66;5025538;28;20080;-30
2023/05/19 11:18:26;;;;;;;4.30;1.52;;;;;;;18.23;66.04;96423.94;5033181;28;20107;-29
2023/05/19 11:34:19;;;;;;;2.58;1.75;;;;;;;18.27;67.29;96403.31;5032547;28;20033;-29
2023/05/19 11:36:45;;;;;;;2.83;1.60;;;;;;;18.24;67.22;96396.00;5031412;28;20029;-29
2023/05/19 11:39:11;;;;;;;3.25;1.67;;;;;;;18.21;66.49;96402.44;5032078;28;20527;-29
2023/05/19 11:48:25;;;;;;;3.47;1.45;;;;;;;18.48;65.60;96406.81;5030315;28;20523;-29
2023/05/19 12:04:18;;;;;;;3.53;1.70;;;;;;;18.30;66.52;96391.34;5036464;28;20043;-28
2023/05/19 12:20:10;;;;;;;2.35;1.50;;;;;;;18.44;66.20;96350.59;5037157;28;20052;-29
2023/05/19 12:22:36;;;;;;;2.53;1.70;;;;;;;18.49;65.62;96347.16;5036327;28;20480;-29
2023/05/19 12:35:08;;;;;;;1.90;1.48;;;;;;;18.43;65.54;96336.09;5040934;28;20037;-29
2023/05/19 12:51:01;;;;;;;4.65;1.70;;;;;;;18.56;64.92;96325.53;5031022;28;20044;-29
2023/05/19 13:04:13;;;;;;;2.95;1.40;;;;;;;18.74;64.17;96330.03;5035906;28;20028;-29
2023/05/19 13:20:05;;;;;;;3.30;1.40;;;;;;;18.64;63.74;96307.44;5034935;28;20392;-29
2023/05/19 13:22:31;;;;;;;2.50;1.45;;;;;;;18.76;63.97;96305.56;5035181;28;20030;-29
2023/05/19 13:35:02;;;;;;;3.53;1.30;;;;;;;18.79;63.66;96298.38;5042612;28;20033;-29
2023/05/19 13:50:54;;;;;;;5.00;1.90;;;;;;;18.70;63.64;96269.03;5028019;28;20061;-29
2023/05/19 14:06:46;;;;;;;2.17;1.17;;;;;;;18.81;63.70;96262.88;5033642;28;20389;-29
2023/05/19 14:20:06;;;;;;;3.05;1.40;;;;;;;18.92;63.43;96238.25;5034102;28;20537;-29
2023/05/19 14:36:01;;;;;;;2.72;1.58;;;;;;;18.72;63.97;96228.09;5033883;28;20032;-29
2023/05/19 14:51:53;;;;;;;2.95;1.60;;;;;;;18.67;64.34;96230.81;5026317;28;20456;-29
2023/05/19 15:21:37;;;;;;;4.00;1.58;;;;;;;18.57;64.64;96219.19;5033626;28;20099;-28
2023/05/19 15:37:42;;;;;;;2.20;1.30;;;;;;;18.63;64.24;96193.31;5032617;28;20515;-29
2023/05/19 16:08:22;;;;;;;4.43;1.45;;;;;;;18.76;63.45;96190.19;5032883;28;20550;-29
2023/05/19 16:21:24;;;;;;;3.97;1.33;;;;;;;18.63;64.27;96176.84;5033315;28;20064;-28
2023/05/19 16:37:17;;;;;;;3.95;1.58;;;;;;;18.76;63.53;96157.22;5035756;28;20079;-29
2023/05/19 16:53:10;;;;;;;3.22;1.52;;;;;;;18.76;63.66;96140.00;5029299;28;20119;-28
2023/05/19 17:09:03;;;;;;;3.85;1.30;;;;;;;18.72;63.13;96128.47;5035427;28;20040;-28
2023/05/19 17:22:08;;;;;;;8.13;1.50;;;;;;;18.52;63.60;96112.78;5034993;28;20045;-29
2023/05/19 17:38:00;;;;;;;4.47;1.85;;;;;;;18.65;63.13;96118.69;5035613;28;20040;-29
2023/05/19 17:53:52;;;;;;;4.55;1.80;;;;;;;18.56;63.66;96121.53;5027069;28;20060;-29
2023/05/19 18:09:45;;;;;;;3.67;2.03;;;;;;;18.62;63.38;96112.16;5034032;28;20381;-29
2023/05/19 18:22:47;;;;;;;3.22;1.65;;;;;;;18.47;63.82;96108.00;5034285;28;20031;-31
2023/05/19 18:38:39;;;;;;;2.88;2.08;;;;;;;18.70;62.94;96111.69;5040227;28;20076;-29
2023/05/19 18:41:06;;;;;;;3.35;1.83;;;;;;;18.47;63.19;96116.22;5034637;28;20029;-29
2023/05/19 18:53:36;;;;;;;6.10;1.88;;;;;;;18.64;63.08;96089.69;5028230;28;20056;-29
2023/05/19 19:09:27;;;;;;;4.10;2.67;;;;;;;18.55;63.10;96087.09;5033065;28;20507;-29
2023/05/19 19:25:20;;;;;;;7.00;2.78;;;;;;;18.50;63.66;96118.00;5032909;28;20049;-29
2023/05/19 19:38:41;;;;;;;5.60;3.28;;;;;;;18.49;62.83;96117.25;5033018;28;20044;-30
2023/05/19 19:54:33;;;;;;;4.90;2.10;;;;;;;18.50;63.13;96129.75;5025965;28;20056;-29
2023/05/19 19:56:59;;;;;;;4.22;1.60;;;;;;;18.49;62.73;96127.47;5032723;28;20033;-29
2023/05/19 20:09:31;;;;;;;7.35;2.85;;;;;;;18.60;62.45;96144.09;5037137;28;20040;-29
2023/05/19 20:25:23;;;;;;;5.93;2.97;;;;;;;18.67;62.49;96154.63;5036198;28;20044;-31
2023/05/19 20:41:16;;;;;;;9.02;2.45;;;;;;;18.52;63.01;96176.72;5035917;28;20069;-30
2023/05/19 20:54:34;;;;;;;3.92;2.30;;;;;;;18.39;63.60;96189.28;5033109;28;20488;-29
2023/05/19 21:10:27;;;;;;;5.20;1.77;;;;;;;18.72;62.64;96224.59;5035246;28;20503;-29
2023/05/19 21:26:20;;;;;;;4.45;1.80;;;;;;;18.57;63.84;96232.91;5035169;28;20033;-29
2023/05/19 21:42:13;;;;;;;6.00;2.38;;;;;;;18.50;64.62;96217.63;5034969;28;20483;-29
2023/05/19 21:55:35;;;;;;;5.32;2.05;;;;;;;18.46;64.81;96186.88;5033141;28;20083;-29
2023/05/19 22:12:17;;;;;;;7.63;2.00;;;;;;;18.35;64.64;96161.28;5034357;28;20091;-29
2023/05/19 22:25:41;;;;;;;5.63;1.98;;;;;;;18.36;64.74;96182.03;5042410;28;20036;-29
2023/05/19 22:41:33;;;;;;;3.65;1.90;;;;;;;18.47;64.19;96165.66;5033811;28;20063;-29
2023/05/19 22:43:59;;;;;;;5.57;2.28;;;;;;;18.45;64.64;96165.38;5041342;28;20029;-29
2023/05/19 22:56:29;;;;;;;3.75;1.90;;;;;;;18.45;64.24;96137.91;5026470;28;20068;-30
2023/05/19 23:12:22;;;;;;;4.10;2.00;;;;;;;18.35;64.51;96101.66;5033432;28;20413;-32
2023/05/19 23:28:14;;;;;;;6.25;2.25;;;;;;;18.24;64.70;96099.56;5033253;28;20032;-29
2023/05/19 23:41:31;;;;;;;5.30;2.35;;;;;;;18.39;64.05;96102.19;5036011;28;20091;-29
2023/05/19 23:57:23;;;;;;;4.80;2.10;;;;;;;18.22;64.84;96082.81;5036848;28;20095;-30
